createdAt,value
2022-09-28T00:01:19.216Z,80.00
2022-09-28T00:03:49.280Z,80.22
2022-09-28T00:06:24.412Z,80.41
2022-09-28T00:08:52.886Z,80.59
2022-09-28T00:11:22.402Z,80.73
2022-09-28T00:13:52.832Z,80.80
2022-09-28T00:16:24.270Z,80.71
2022-09-28T00:18:53.986Z,80.85
2022-09-28T00:21:25.137Z,80.77
2022-09-28T00:24:17.284Z,80.82
2022-09-28T00:26:51.995Z,80.92
2022-09-28T00:29:23.612Z,80.69
2022-09-28T00:31:53.146Z,80.72
2022-09-28T00:34:20.961Z,80.61
2022-09-28T00:36:49.615Z,80.88
2022-09-28T00:39:18.063Z,80.87
2022-09-28T00:41:47.216Z,80.69
2022-09-28T00:44:42.495Z,80.77
2022-09-28T00:47:17.834Z,80.78
2022-09-28T00:50:12.824Z,80.89
2022-09-28T00:52:42.821Z,80.98
2022-09-28T00:55:16.213Z,80.98
2022-09-28T00:57:51.271Z,81.15
2022-09-28T01:00:19.580Z,81.26
2022-09-28T01:02:48.343Z,81.20
2022-09-28T01:05:17.800Z,80.95
2022-09-28T01:07:47.041Z,80.88
2022-09-28T01:10:15.552Z,80.77
2022-09-28T01:12:43.601Z,80.95
2022-09-28T01:15:11.820Z,80.98
2022-09-28T01:18:11.896Z,80.94
2022-09-28T01:21:02.503Z,81.10
2022-09-28T01:23:48.777Z,81.17
2022-09-28T01:26:31.930Z,81.18
2022-09-28T01:29:17.739Z,81.09
2022-09-28T01:31:52.979Z,81.28
2022-09-28T01:34:56.501Z,81.07
2022-09-28T01:37:32.471Z,80.65
2022-09-28T01:40:03.926Z,80.44
2022-09-28T01:42:36.090Z,80.43
2022-09-28T01:45:12.366Z,80.05
2022-09-28T01:47:41.352Z,79.88
2022-09-28T01:50:18.230Z,79.53
2022-09-28T01:52:58.886Z,79.46
2022-09-28T01:55:39.150Z,79.21
2022-09-28T01:58:16.107Z,78.89
2022-09-28T02:00:49.258Z,78.73
2022-09-28T02:03:33.111Z,78.65
2022-09-28T02:06:08.680Z,78.27
2022-09-28T02:09:03.467Z,77.98
2022-09-28T02:11:45.177Z,77.57
2022-09-28T02:14:17.604Z,77.37
2022-09-28T02:16:49.596Z,76.96
2022-09-28T02:19:26.086Z,76.70
2022-09-28T02:22:14.090Z,76.88
2022-09-28T02:25:07.957Z,76.49
2022-09-28T02:27:45.459Z,75.91
2022-09-28T02:30:14.961Z,76.23
2022-09-28T02:32:48.039Z,76.20
2022-09-28T02:35:18.523Z,76.54
2022-09-28T02:37:47.072Z,76.37
2022-09-28T02:40:22.387Z,76.26
2022-09-28T02:43:11.566Z,76.29
2022-09-28T02:45:56.289Z,76.49
2022-09-28T02:49:00.172Z,76.32
2022-09-28T02:51:38.121Z,76.71
2022-09-28T02:54:20.905Z,76.48
2022-09-28T02:57:32.208Z,76.44
2022-09-28T03:00:12.041Z,76.85
2022-09-28T03:02:52.313Z,76.67
2022-09-28T03:05:39.194Z,76.58
2022-09-28T03:08:15.477Z,76.69
2022-09-28T03:10:45.784Z,76.90
2022-09-28T03:13:14.702Z,77.20
2022-09-28T03:15:48.536Z,77.19
2022-09-28T03:18:18.095Z,77.45
2022-09-28T03:20:47.003Z,77.17
2022-09-28T03:23:29.951Z,77.41
2022-09-28T03:25:58.137Z,77.06
2022-09-28T03:28:26.576Z,77.32
2022-09-28T03:30:54.558Z,77.06
2022-09-28T03:33:23.130Z,77.19
2022-09-28T03:35:54.545Z,77.13
2022-09-28T03:38:22.657Z,77.09
2022-09-28T03:40:58.700Z,77.03
2022-09-28T03:43:28.334Z,76.90
2022-09-28T03:45:58.805Z,76.91
2022-09-28T03:48:36.492Z,77.15
2022-09-28T03:51:09.218Z,77.09
2022-09-28T03:53:37.283Z,76.67
2022-09-28T03:56:15.520Z,76.64
2022-09-28T03:58:43.310Z,76.77
2022-09-28T04:01:16.865Z,76.84
2022-09-28T04:03:45.953Z,77.12
2022-09-28T04:06:14.471Z,76.82
2022-09-28T04:08:43.534Z,76.93
2022-09-28T04:11:12.157Z,76.96
2022-09-28T04:13:40.031Z,77.10
2022-09-28T04:16:12.067Z,77.36
2022-09-28T04:18:43.038Z,77.27
2022-09-28T04:21:13.309Z,77.38
2022-09-28T04:23:45.852Z,77.45
2022-09-28T04:26:19.771Z,77.31
2022-09-28T04:29:07.677Z,77.23
2022-09-28T04:31:53.957Z,76.95
2022-09-28T04:34:29.785Z,76.97
2022-09-28T04:36:59.758Z,77.10
2022-09-28T04:39:27.798Z,77.03
2022-09-28T04:41:57.222Z,77.07
2022-09-28T04:44:25.011Z,76.98
2022-09-28T04:47:01.743Z,77.26
2022-09-28T04:49:35.497Z,77.21
2022-09-28T04:52:18.552Z,77.34
2022-09-28T04:54:49.275Z,77.24
2022-09-28T04:57:17.787Z,77.33
2022-09-28T04:59:45.883Z,76.91
2022-09-28T05:02:15.124Z,77.09
2022-09-28T05:05:15.292Z,77.09
2022-09-28T05:08:06.188Z,76.96
2022-09-28T05:10:34.878Z,77.04
2022-09-28T05:13:02.951Z,77.14
2022-09-28T05:15:31.234Z,77.19
2022-09-28T05:17:59.311Z,77.07
2022-09-28T05:20:42.241Z,77.08
2022-09-28T05:23:13.422Z,77.08
2022-09-28T05:25:43.078Z,76.74
2022-09-28T05:28:28.561Z,76.98
2022-09-28T05:31:28.534Z,76.94
2022-09-28T05:34:19.557Z,77.33
2022-09-28T05:36:47.425Z,77.24
2022-09-28T05:39:15.314Z,77.38
2022-09-28T05:41:43.164Z,77.47
2022-09-28T05:44:11.229Z,77.69
2022-09-28T05:46:39.078Z,77.60
2022-09-28T05:49:06.889Z,77.67
2022-09-28T05:51:34.638Z,77.68
2022-09-28T05:54:05.957Z,77.72
2022-09-28T05:56:35.631Z,77.59
2022-09-28T05:59:07.891Z,77.44
2022-09-28T06:01:37.156Z,77.13
2022-09-28T06:04:09.083Z,77.29
2022-09-28T06:06:38.975Z,77.39
2022-09-28T06:09:06.726Z,77.50
2022-09-28T06:11:35.020Z,77.42
2022-09-28T06:14:21.515Z,77.09
2022-09-28T06:16:50.260Z,76.98
2022-09-28T06:19:18.618Z,76.98
2022-09-28T06:22:05.349Z,76.98
2022-09-28T06:24:37.151Z,76.85
2022-09-28T06:27:04.949Z,77.12
2022-09-28T06:29:32.894Z,76.90
2022-09-28T06:32:01.383Z,77.20
2022-09-28T06:34:30.092Z,77.21
2022-09-28T06:36:57.941Z,77.01
2022-09-28T06:39:26.340Z,76.53
2022-09-28T06:41:54.100Z,76.73
2022-09-28T06:44:22.167Z,76.03
2022-09-28T06:47:19.264Z,76.09
2022-09-28T06:50:13.680Z,75.92
2022-09-28T06:52:53.900Z,75.26
2022-09-28T06:55:46.206Z,74.81
2022-09-28T06:58:17.424Z,74.81
2022-09-28T07:00:46.360Z,74.63
2022-09-28T07:03:17.081Z,74.57
2022-09-28T07:05:56.066Z,75.08
2022-09-28T07:09:27.566Z,74.23
2022-09-28T07:12:13.268Z,74.12
2022-09-28T07:15:02.530Z,73.50
2022-09-28T07:17:32.006Z,73.70
2022-09-28T07:20:14.094Z,73.50
2022-09-28T07:22:48.143Z,73.53
2022-09-28T07:25:20.619Z,73.53
2022-09-28T07:28:02.014Z,72.96
2022-09-28T07:30:48.523Z,72.68
2022-09-28T07:33:38.923Z,73.23
2022-09-28T07:36:18.012Z,72.89
2022-09-28T07:38:46.390Z,72.90
2022-09-28T07:41:16.926Z,73.07
2022-09-28T07:43:48.473Z,72.96
2022-09-28T07:46:17.772Z,73.11
2022-09-28T07:48:55.772Z,73.73
2022-09-28T07:51:44.838Z,73.29
2022-09-28T07:54:24.164Z,72.99
2022-09-28T07:57:00.863Z,71.90
2022-09-28T07:59:37.053Z,73.00
2022-09-28T08:02:24.539Z,72.74
2022-09-28T08:04:52.896Z,72.52
2022-09-28T08:07:24.249Z,71.59
2022-09-28T08:09:58.526Z,71.56
2022-09-28T08:12:29.306Z,71.37
2022-09-28T08:15:13.138Z,71.35
2022-09-28T08:17:49.324Z,71.07
2022-09-28T08:20:38.803Z,71.26
2022-09-28T08:23:08.836Z,71.40
2022-09-28T08:25:38.394Z,70.54
2022-09-28T08:28:07.539Z,70.57
2022-09-28T08:30:41.544Z,70.94
2022-09-28T08:33:21.868Z,69.99
2022-09-28T08:35:59.293Z,69.98
2022-09-28T08:38:36.656Z,68.80
2022-09-28T08:41:35.010Z,69.09
2022-09-28T08:44:25.576Z,68.70
2022-09-28T08:47:54.839Z,66.88
2022-09-28T08:50:46.984Z,67.00
2022-09-28T08:53:41.716Z,67.79
2022-09-28T08:56:49.753Z,67.12
2022-09-28T08:59:22.484Z,67.19
2022-09-28T09:01:58.218Z,66.32
2022-09-28T09:04:27.279Z,66.28
2022-09-28T09:07:20.747Z,65.74
2022-09-28T09:10:48.179Z,65.87
2022-09-28T09:13:33.930Z,64.80
2022-09-28T09:16:19.983Z,64.31
2022-09-28T09:19:28.407Z,61.51
2022-09-28T09:22:39.239Z,58.42
2022-09-28T09:25:18.249Z,54.64
2022-09-28T09:27:58.037Z,52.07
2022-09-28T09:30:31.596Z,49.56
2022-09-28T09:33:05.367Z,46.41
2022-09-28T09:36:28.189Z,43.35
2022-09-28T09:39:36.598Z,38.90
2022-09-28T09:42:49.262Z,40.23
2022-09-28T09:45:54.017Z,39.03
2022-09-28T09:48:59.814Z,36.18
2022-09-28T09:51:37.096Z,35.56
2022-09-28T09:54:29.460Z,33.99
2022-09-28T09:57:05.237Z,33.89
2022-09-28T10:00:03.146Z,35.33
2022-09-28T10:02:49.923Z,35.89
2022-09-28T10:05:31.039Z,33.65
2022-09-28T10:08:01.798Z,33.84
2022-09-28T10:10:37.332Z,36.71
2022-09-28T10:13:10.382Z,36.38
2022-09-28T10:15:41.325Z,37.72
2022-09-28T10:18:21.678Z,41.66
2022-09-28T10:21:14.032Z,42.60
2022-09-28T10:24:04.189Z,42.74
2022-09-28T10:26:39.530Z,41.32
2022-09-28T10:29:25.070Z,38.59
2022-09-28T10:31:54.721Z,39.18
2022-09-28T10:34:40.288Z,43.59
2022-09-28T10:37:13.581Z,44.25
2022-09-28T10:39:59.272Z,44.65
2022-09-28T10:42:32.435Z,45.59
2022-09-28T10:45:07.290Z,46.58
2022-09-28T10:47:44.632Z,48.96
2022-09-28T10:50:27.634Z,49.13
2022-09-28T10:53:20.602Z,50.28
2022-09-28T10:56:23.803Z,52.11
2022-09-28T10:58:59.027Z,52.11
2022-09-28T11:01:39.469Z,52.37
2022-09-28T11:04:10.956Z,53.36
2022-09-28T11:06:41.913Z,53.97
2022-09-28T11:09:31.155Z,54.00
2022-09-28T11:12:06.542Z,54.14
2022-09-28T11:14:42.086Z,53.89
2022-09-28T11:17:24.554Z,53.15
2022-09-28T11:19:53.865Z,53.01
2022-09-28T11:22:32.363Z,52.79
2022-09-28T11:25:18.244Z,53.03
2022-09-28T11:27:50.615Z,52.75
2022-09-28T11:30:27.714Z,52.56
2022-09-28T11:33:20.144Z,54.75
2022-09-28T11:36:21.467Z,53.95
2022-09-28T11:39:09.813Z,55.50
2022-09-28T11:41:59.372Z,56.27
2022-09-28T11:44:48.540Z,56.15
2022-09-28T11:47:41.706Z,56.54
2022-09-28T11:50:24.425Z,54.66
2022-09-28T11:53:04.102Z,53.56
2022-09-28T11:55:38.852Z,53.47
2022-09-28T11:58:16.021Z,52.99
2022-09-28T12:00:50.874Z,53.42
2022-09-28T12:03:26.170Z,53.14
2022-09-28T12:06:08.824Z,52.94
2022-09-28T12:08:43.554Z,53.56
2022-09-28T12:11:52.549Z,54.18
2022-09-28T12:14:31.087Z,55.27
2022-09-28T12:17:22.624Z,56.47
2022-09-28T12:20:00.677Z,56.43
2022-09-28T12:22:48.318Z,54.79
2022-09-28T12:25:21.201Z,55.45
2022-09-28T12:27:54.173Z,55.94
2022-09-28T12:30:27.160Z,56.91
2022-09-28T12:33:15.460Z,56.60
2022-09-28T12:36:02.811Z,56.97
2022-09-28T12:38:33.292Z,56.32
2022-09-28T12:41:18.613Z,55.26
2022-09-28T12:44:04.713Z,55.22
2022-09-28T12:46:54.355Z,56.10
2022-09-28T12:50:37.150Z,55.93
2022-09-28T12:52:44.758Z,58.26
2022-09-28T12:55:25.110Z,61.94
2022-09-28T12:57:58.609Z,63.39
2022-09-28T13:00:36.237Z,65.08
2022-09-28T13:03:31.821Z,66.06
2022-09-28T13:06:36.824Z,66.82
2022-09-28T13:09:22.626Z,67.20
2022-09-28T13:11:54.874Z,67.58
2022-09-28T13:14:57.680Z,67.66
2022-09-28T13:17:37.897Z,67.23
2022-09-28T13:20:32.185Z,67.13
2022-09-28T13:23:19.953Z,67.56
2022-09-28T13:25:56.357Z,66.33
2022-09-28T13:28:27.366Z,66.13
2022-09-28T13:33:37.470Z,66.46
2022-09-28T13:36:30.722Z,65.05
2022-09-28T13:39:01.440Z,62.53
2022-09-28T13:41:36.701Z,63.33
2022-09-28T13:44:13.525Z,62.92
2022-09-28T13:46:58.459Z,65.46
2022-09-28T13:49:47.285Z,63.83
2022-09-28T13:52:50.664Z,64.87
2022-09-28T13:55:54.107Z,65.68
2022-09-28T13:58:30.993Z,64.78
2022-09-28T14:01:17.461Z,65.02
2022-09-28T14:04:10.471Z,64.13
2022-09-28T14:06:44.490Z,61.72
2022-09-28T14:09:19.028Z,62.07
2022-09-28T14:11:59.040Z,62.78
2022-09-28T14:14:49.432Z,63.80
2022-09-28T14:17:26.206Z,63.63
2022-09-28T14:20:10.682Z,63.60
2022-09-28T14:23:01.056Z,63.22
2022-09-28T14:25:43.437Z,63.98
2022-09-28T14:28:27.746Z,64.27
2022-09-28T14:30:58.326Z,63.13
2022-09-28T14:33:31.523Z,63.39
2022-09-28T14:36:05.925Z,64.06
2022-09-28T14:39:03.472Z,63.12
2022-09-28T14:41:41.987Z,62.88
2022-09-28T14:44:16.427Z,62.00
2022-09-28T14:46:46.024Z,61.79
2022-09-28T14:49:19.786Z,61.89
2022-09-28T14:51:47.598Z,61.23
2022-09-28T14:54:22.832Z,63.17
2022-09-28T14:56:53.584Z,63.32
2022-09-28T14:59:25.216Z,63.31
2022-09-28T15:02:13.477Z,61.14
2022-09-28T15:04:45.899Z,61.37
2022-09-28T15:07:22.496Z,60.35
2022-09-28T15:09:53.040Z,60.80
2022-09-28T15:12:27.686Z,61.71
2022-09-28T15:14:59.129Z,61.44
2022-09-28T15:17:31.578Z,62.15
2022-09-28T15:20:17.321Z,61.98
2022-09-28T15:22:47.583Z,61.25
2022-09-28T15:25:20.183Z,61.55
2022-09-28T15:27:54.186Z,62.33
2022-09-28T15:30:27.980Z,62.67
2022-09-28T15:33:17.177Z,62.92
2022-09-28T15:36:02.369Z,62.92
2022-09-28T15:38:33.360Z,63.29
2022-09-28T15:41:06.780Z,62.90
2022-09-28T15:43:37.203Z,62.61
2022-09-28T15:46:23.610Z,62.02
2022-09-28T15:48:55.529Z,61.79
2022-09-28T15:51:24.642Z,61.46
2022-09-28T15:54:04.634Z,61.79
2022-09-28T15:56:59.743Z,62.43
2022-09-28T15:59:36.965Z,62.86
2022-09-28T16:02:25.723Z,62.45
2022-09-28T16:04:56.188Z,62.76
2022-09-28T16:07:35.670Z,62.93
2022-09-28T16:10:12.032Z,63.12
2022-09-28T16:12:54.101Z,63.07
2022-09-28T16:15:27.876Z,63.30
2022-09-28T16:18:02.980Z,63.58
2022-09-28T16:20:34.747Z,65.30
2022-09-28T16:23:34.230Z,65.46
2022-09-28T16:26:11.326Z,64.86
2022-09-28T16:28:39.016Z,64.68
2022-09-28T16:31:22.215Z,64.48
2022-09-28T16:33:54.553Z,64.53
2022-09-28T16:36:27.583Z,64.99
2022-09-28T16:38:56.061Z,65.48
2022-09-28T16:41:27.558Z,65.90
2022-09-28T16:43:59.779Z,65.41
2022-09-28T16:46:37.187Z,65.34
2022-09-28T16:49:07.025Z,65.47
2022-09-28T16:51:34.847Z,65.87
2022-09-28T16:54:33.723Z,65.73
2022-09-28T16:57:03.393Z,65.79
2022-09-28T16:59:31.704Z,65.57
2022-09-28T17:01:59.635Z,65.74
2022-09-28T17:04:27.564Z,65.89
2022-09-28T17:06:56.467Z,66.45
2022-09-28T17:09:24.327Z,66.48
2022-09-28T17:11:57.059Z,66.60
2022-09-28T17:14:24.903Z,66.09
2022-09-28T17:17:13.798Z,66.41
2022-09-28T17:19:42.528Z,66.84
2022-09-28T17:22:10.597Z,67.22
2022-09-28T17:24:38.542Z,66.67
2022-09-28T17:27:07.479Z,66.84
2022-09-28T17:29:35.336Z,67.30
2022-09-28T17:32:05.059Z,67.55
2022-09-28T17:34:32.773Z,67.67
2022-09-28T17:37:00.584Z,68.25
2022-09-28T17:39:28.564Z,68.44
2022-09-28T17:41:56.287Z,69.34
2022-09-28T17:44:24.017Z,69.88
2022-09-28T17:46:52.386Z,70.16
2022-09-28T17:49:20.155Z,70.41
2022-09-28T17:51:47.898Z,71.08
2022-09-28T17:54:20.183Z,71.12
2022-09-28T17:56:48.484Z,71.84
2022-09-28T17:59:18.591Z,72.12
2022-09-28T18:01:48.270Z,72.26
2022-09-28T18:04:39.759Z,72.59
2022-09-28T18:07:05.161Z,72.44
2022-09-28T18:09:32.905Z,72.01
2022-09-28T18:12:04.157Z,71.75
2022-09-28T18:14:32.115Z,71.12
2022-09-28T18:17:00.019Z,71.25
2022-09-28T18:19:32.019Z,71.33
2022-09-28T18:22:01.628Z,71.47
2022-09-28T18:24:30.048Z,71.71
2022-09-28T18:26:58.126Z,71.95
2022-09-28T18:29:28.021Z,71.82
2022-09-28T18:31:57.855Z,72.59
2022-09-28T18:34:25.565Z,72.26
2022-09-28T18:36:53.486Z,72.30
2022-09-28T18:39:21.597Z,72.35
2022-09-28T18:41:49.279Z,72.99
2022-09-28T18:44:17.110Z,72.98
2022-09-28T18:46:44.906Z,73.16
2022-09-28T18:49:12.710Z,73.11
2022-09-28T18:51:40.620Z,73.18
2022-09-28T18:54:08.492Z,73.56
2022-09-28T18:56:38.116Z,73.56
2022-09-28T18:59:11.772Z,73.88
2022-09-28T19:01:49.073Z,73.88
2022-09-28T19:04:17.246Z,73.95
2022-09-28T19:06:47.700Z,73.74
2022-09-28T19:09:22.123Z,74.23
2022-09-28T19:11:50.284Z,74.47
2022-09-28T19:14:18.086Z,74.61
2022-09-28T19:16:46.578Z,74.98
2022-09-28T19:19:17.573Z,75.28
2022-09-28T19:21:45.431Z,75.84
2022-09-28T19:24:15.487Z,76.39
2022-09-28T19:26:44.085Z,76.94
2022-09-28T19:29:12.615Z,77.26
2022-09-28T19:31:41.615Z,77.58
2022-09-28T19:34:11.925Z,77.63
2022-09-28T19:36:42.209Z,77.63
2022-09-28T19:39:13.579Z,77.54
2022-09-28T19:41:47.885Z,77.63
2022-09-28T19:44:27.818Z,77.57
2022-09-28T19:47:07.596Z,77.44
2022-09-28T19:49:39.000Z,77.17
2022-09-28T19:52:15.902Z,77.09
2022-09-28T19:54:58.301Z,77.03
2022-09-28T19:57:28.116Z,77.01
2022-09-28T20:00:01.653Z,76.91
2022-09-28T20:02:34.364Z,77.20
2022-09-28T20:05:02.982Z,77.31
2022-09-28T20:07:33.051Z,77.27
2022-09-28T20:10:01.128Z,77.11
2022-09-28T20:12:28.939Z,77.03
2022-09-28T20:14:56.669Z,76.76
2022-09-28T20:17:24.374Z,76.84
2022-09-28T20:19:52.581Z,77.10
2022-09-28T20:22:21.370Z,77.02
2022-09-28T20:24:49.226Z,77.27
2022-09-28T20:27:17.098Z,77.55
2022-09-28T20:29:44.831Z,77.52
2022-09-28T20:32:12.636Z,77.43
2022-09-28T20:34:40.339Z,77.61
2022-09-28T20:37:08.275Z,77.71
2022-09-28T20:39:36.149Z,77.89
2022-09-28T20:42:03.906Z,78.10
2022-09-28T20:44:31.663Z,77.83
2022-09-28T20:47:00.101Z,77.65
2022-09-28T20:49:28.347Z,77.72
2022-09-28T20:51:56.221Z,77.34
2022-09-28T20:54:23.995Z,77.15
2022-09-28T20:56:52.057Z,77.34
2022-09-28T20:59:22.936Z,77.45
2022-09-28T21:01:51.339Z,77.63
2022-09-28T21:04:19.765Z,77.71
2022-09-28T21:06:47.743Z,77.99
2022-09-28T21:09:15.461Z,78.22
2022-09-28T21:11:43.487Z,78.04
2022-09-28T21:14:11.362Z,77.78
2022-09-28T21:16:39.160Z,77.84
2022-09-28T21:19:07.000Z,77.89
2022-09-28T21:21:34.872Z,78.24
2022-09-28T21:24:03.236Z,78.33
2022-09-28T21:26:32.144Z,78.22
2022-09-28T21:29:03.114Z,78.34
2022-09-28T21:31:39.049Z,78.29
2022-09-28T21:34:09.569Z,78.17
2022-09-28T21:36:37.299Z,78.20
2022-09-28T21:39:09.568Z,77.84
2022-09-28T21:41:38.508Z,77.74
2022-09-28T21:44:07.201Z,77.37
2022-09-28T21:46:36.525Z,77.15
2022-09-28T21:49:07.552Z,77.18
2022-09-28T21:51:36.183Z,77.07
2022-09-28T21:54:04.478Z,77.10
2022-09-28T21:56:32.320Z,76.96
2022-09-28T21:59:01.457Z,76.63
2022-09-28T22:01:29.410Z,76.48
2022-09-28T22:03:57.904Z,76.72
2022-09-28T22:06:28.344Z,76.76
2022-09-28T22:08:57.074Z,76.95
2022-09-28T22:11:27.889Z,77.09
2022-09-28T22:13:58.539Z,77.29
2022-09-28T22:16:30.114Z,77.42
2022-09-28T22:18:59.339Z,77.32
2022-09-28T22:21:29.995Z,76.94
2022-09-28T22:24:02.723Z,76.96
2022-09-28T22:26:32.431Z,77.50
2022-09-28T22:29:06.950Z,77.63
2022-09-28T22:31:37.462Z,77.27
2022-09-28T22:34:06.268Z,77.37
2022-09-28T22:36:34.556Z,77.28
2022-09-28T22:39:02.481Z,77.42
2022-09-28T22:41:30.255Z,77.93
2022-09-28T22:43:59.101Z,78.19
2022-09-28T22:46:29.315Z,77.68
2022-09-28T22:48:59.431Z,77.41
2022-09-28T22:51:29.357Z,77.63
2022-09-28T22:53:57.846Z,78.00
2022-09-28T22:56:25.714Z,77.89
2022-09-28T22:58:53.918Z,78.15
2022-09-28T23:01:29.620Z,77.94
2022-09-28T23:03:58.430Z,78.43
2022-09-28T23:06:29.085Z,78.53
2022-09-28T23:08:57.404Z,78.88
2022-09-28T23:11:25.577Z,79.27
2022-09-28T23:13:55.948Z,79.67
2022-09-28T23:16:25.839Z,79.52
2022-09-28T23:18:55.138Z,79.55
2022-09-28T23:21:25.318Z,79.50
2022-09-28T23:23:56.456Z,79.34
2022-09-28T23:26:27.079Z,79.14
2022-09-28T23:28:55.762Z,79.25
2022-09-28T23:31:27.987Z,79.18
2022-09-28T23:33:59.384Z,79.20
2022-09-28T23:36:27.823Z,79.55
2022-09-28T23:38:56.260Z,79.50
2022-09-28T23:41:24.127Z,79.51
2022-09-28T23:43:51.995Z,79.39
2022-09-28T23:46:21.071Z,79.64
2022-09-28T23:48:50.114Z,80.20
2022-09-28T23:51:18.533Z,79.76
2022-09-28T23:53:46.423Z,79.58
2022-09-28T23:56:14.752Z,79.21
2022-09-28T23:58:43.006Z,78.90
